Time;durP1;ratioP1;P1;durP2;ratioP2;P2;SDS_P1;SDS_P2;PMS_P1;PMS_P2;Temp;Humidity;BMP_temperature;BMP_pressure;BME280_temperature;BME280_humidity;BME280_pressure;Samples;Min_cycle;Max_cycle;Signal;HPM_P1;HPM_P2
2023/01/28 00:00:17;;;;;;;18.73;17.10;;;3.70;99.90;;;;;;5063813;28;20980;-68
2023/01/28 00:02:44;;;;;;;17.07;15.50;;;3.70;99.90;;;;;;5066667;28;20984;-68
2023/01/28 00:05:11;;;;;;;18.57;16.97;;;3.60;99.90;;;;;;5071906;28;20487;-68
2023/01/28 00:07:38;;;;;;;19.27;17.50;;;3.70;99.90;;;;;;5070189;28;21980;-69
2023/01/28 00:10:05;;;;;;;17.83;16.00;;;3.70;99.90;;;;;;5063038;28;21008;-69
2023/01/28 00:12:33;;;;;;;20.50;16.87;;;3.70;99.90;;;;;;5070799;28;20723;-69
2023/01/28 00:15:01;;;;;;;18.40;16.90;;;3.70;99.90;;;;;;5073478;28;20467;-69
2023/01/28 00:17:28;;;;;;;17.20;15.57;;;3.80;99.90;;;;;;5066062;28;20476;-69
2023/01/28 00:19:55;;;;;;;18.53;16.77;;;3.70;99.90;;;;;;5072649;28;20469;-69
2023/01/28 00:22:22;;;;;;;19.83;17.87;;;3.70;99.90;;;;;;5068789;28;20475;-69
2023/01/28 00:24:49;;;;;;;20.10;18.07;;;3.60;99.90;;;;;;5074216;28;21140;-69
2023/01/28 00:27:16;;;;;;;19.57;17.57;;;3.50;99.90;;;;;;5067006;28;20459;-68
2023/01/28 00:29:44;;;;;;;19.20;17.33;;;3.40;99.90;;;;;;5072782;28;20831;-69
2023/01/28 00:32:11;;;;;;;19.23;17.33;;;3.50;99.90;;;;;;5076802;28;20454;-69
2023/01/28 00:34:38;;;;;;;18.17;16.37;;;3.50;99.90;;;;;;5075208;28;20484;-69
2023/01/28 00:37:05;;;;;;;19.23;17.33;;;3.60;99.90;;;;;;5064017;28;20472;-69
2023/01/28 00:39:32;;;;;;;21.27;19.27;;;3.50;99.90;;;;;;5069358;28;20509;-69
2023/01/28 00:41:59;;;;;;;19.60;17.70;;;3.70;99.90;;;;;;5069050;28;20501;-69
2023/01/28 00:44:27;;;;;;;21.40;19.13;;;3.60;99.90;;;;;;5075724;28;20497;-69
2023/01/28 00:46:55;;;;;;;21.13;19.00;;;3.50;99.90;;;;;;5073519;28;20557;-68
2023/01/28 00:49:22;;;;;;;21.90;19.70;;;3.60;99.90;;;;;;5061322;28;20467;-68
2023/01/28 00:51:48;;;;;;;22.13;19.90;;;3.60;99.90;;;;;;5064509;28;20470;-68
2023/01/28 00:54:16;;;;;;;23.00;18.57;;;3.60;99.90;;;;;;5064844;28;21031;-68
2023/01/28 00:56:42;;;;;;;21.43;19.30;;;3.60;99.90;;;;;;5077270;28;20832;-69
2023/01/28 00:59:09;;;;;;;20.47;18.57;;;3.40;99.90;;;;;;5067539;28;20466;-69
2023/01/28 01:01:36;;;;;;;21.70;18.97;;;3.50;99.90;;;;;;5067395;28;20474;-69
2023/01/28 01:04:05;;;;;;;21.37;19.27;;;3.60;99.90;;;;;;5066902;28;20458;-69
2023/01/28 01:06:34;;;;;;;21.80;19.60;;;3.60;99.90;;;;;;5072561;28;20464;-69
2023/01/28 01:09:01;;;;;;;22.87;20.20;;;3.60;99.90;;;;;;5068923;28;20553;-69
2023/01/28 01:11:28;;;;;;;24.70;20.33;;;3.70;99.90;;;;;;5073835;28;20660;-69
2023/01/28 01:13:56;;;;;;;22.20;20.00;;;3.60;99.90;;;;;;5075418;28;20469;-69
2023/01/28 01:16:25;;;;;;;21.03;18.73;;;3.60;99.90;;;;;;5073356;28;20969;-68
2023/01/28 01:18:53;;;;;;;24.37;20.80;;;3.50;99.90;;;;;;5072389;28;20541;-69
2023/01/28 01:21:23;;;;;;;21.97;20.07;;;3.50;99.90;;;;;;5072090;28;20455;-69
2023/01/28 01:23:50;;;;;;;22.33;20.10;;;3.40;99.90;;;;;;5071661;28;20470;-69
2023/01/28 01:26:18;;;;;;;21.40;19.30;;;3.50;99.90;;;;;;5080588;28;20450;-68
2023/01/28 01:28:45;;;;;;;20.80;18.70;;;3.60;99.90;;;;;;5074181;28;20530;-69
2023/01/28 01:31:14;;;;;;;21.03;18.93;;;3.50;99.90;;;;;;5070956;28;20463;-69
2023/01/28 01:33:41;;;;;;;23.90;21.70;;;3.50;99.90;;;;;;5069663;28;20462;-69
2023/01/28 01:36:11;;;;;;;21.00;18.87;;;3.50;99.90;;;;;;5070591;28;20466;-69
2023/01/28 01:38:40;;;;;;;22.60;20.50;;;3.50;99.90;;;;;;5071142;28;20470;-69
2023/01/28 01:41:07;;;;;;;21.63;19.67;;;3.40;99.90;;;;;;5071670;28;20477;-69
2023/01/28 01:43:49;;;;;;;22.77;20.47;;;3.50;99.90;;;;;;5063649;28;20529;-69
2023/01/28 01:46:19;;;;;;;21.60;19.60;;;3.50;99.90;;;;;;5065708;28;21004;-69
2023/01/28 01:48:46;;;;;;;22.33;20.43;;;3.40;99.90;;;;;;5070400;28;20465;-69
2023/01/28 01:51:16;;;;;;;23.33;21.20;;;3.40;99.90;;;;;;5071223;28;20486;-69
2023/01/28 01:53:49;;;;;;;24.13;21.93;;;3.40;99.90;;;;;;5070770;28;21130;-69
2023/01/28 01:56:21;;;;;;;24.13;21.80;;;3.40;99.90;;;;;;5075418;28;20458;-69
2023/01/28 01:58:53;;;;;;;23.93;21.60;;;3.40;99.90;;;;;;5069802;28;20455;-69
2023/01/28 02:01:22;;;;;;;25.97;23.20;;;3.40;99.90;;;;;;5072353;28;20991;-69
2023/01/28 02:03:57;;;;;;;22.23;19.93;;;3.50;99.90;;;;;;5074451;28;20458;-69
2023/01/28 02:06:25;;;;;;;22.93;20.63;;;3.50;99.90;;;;;;5074984;28;20506;-68
2023/01/28 02:08:56;;;;;;;24.23;21.73;;;3.40;99.90;;;;;;5064810;28;20997;-69
2023/01/28 02:11:27;;;;;;;22.33;20.07;;;3.40;99.90;;;;;;5068699;28;20498;-69
2023/01/28 02:13:58;;;;;;;23.80;21.60;;;3.40;99.90;;;;;;5076619;28;20467;-68
2023/01/28 02:16:26;;;;;;;23.53;21.13;;;3.50;99.90;;;;;;5073862;28;20489;-69
2023/01/28 02:18:53;;;;;;;23.97;21.57;;;3.40;99.90;;;;;;5073669;28;20462;-68
2023/01/28 02:22:02;;;;;;;23.20;20.80;;;3.30;99.90;;;;;;5073838;28;20466;-69
2023/01/28 02:24:56;;;;;;;25.20;22.73;;;3.30;99.90;;;;;;4984648;28;21288;-68
2023/01/28 02:27:34;;;;;;;26.40;22.80;;;3.30;99.90;;;;;;4989247;28;20549;-68
2023/01/28 02:30:07;;;;;;;24.80;22.30;;;3.20;99.90;;;;;;5054377;28;20539;-68
2023/01/28 02:32:40;;;;;;;24.53;22.10;;;3.10;99.90;;;;;;5067747;28;21002;-69
2023/01/28 02:35:16;;;;;;;25.43;22.73;;;3.10;99.90;;;;;;5070225;28;20461;-69
2023/01/28 02:37:50;;;;;;;23.47;21.13;;;3.10;99.90;;;;;;5068341;28;20887;-69
2023/01/28 02:40:22;;;;;;;26.17;23.50;;;3.00;99.90;;;;;;5065152;28;21131;-69
2023/01/28 02:42:49;;;;;;;24.57;22.20;;;3.00;99.90;;;;;;5067745;28;20490;-69
2023/01/28 02:45:21;;;;;;;25.47;21.47;;;3.00;99.90;;;;;;5076962;28;20486;-69
2023/01/28 02:47:59;;;;;;;25.90;23.10;;;3.00;99.90;;;;;;5072379;28;20533;-68
2023/01/28 02:50:37;;;;;;;23.40;20.80;;;3.00;99.90;;;;;;5072291;28;20513;-69
2023/01/28 02:53:42;;;;;;;27.13;21.30;;;3.00;99.90;;;;;;5072695;28;20552;-69
2023/01/28 02:56:17;;;;;;;28.30;25.40;;;2.90;99.90;;;;;;5074341;28;20469;-68
2023/01/28 02:58:52;;;;;;;26.53;23.73;;;3.00;99.90;;;;;;5062125;28;20466;-69
2023/01/28 03:01:25;;;;;;;30.50;24.90;;;3.00;99.90;;;;;;5067541;28;20462;-69
2023/01/28 03:03:59;;;;;;;26.10;22.50;;;2.80;99.90;;;;;;5077142;28;20462;-69
2023/01/28 03:06:33;;;;;;;30.50;25.90;;;2.80;99.90;;;;;;5074773;28;20502;-69
2023/01/28 03:09:23;;;;;;;32.63;26.40;;;2.90;99.90;;;;;;5064624;28;20466;-69
2023/01/28 03:36:57;;;;;;;21.53;19.37;;;3.00;99.90;;;;;;5072200;28;20466;-69
2023/01/28 03:39:26;;;;;;;27.87;24.87;;;2.90;99.90;;;;;;5076538;28;20514;-69
2023/01/28 03:41:58;;;;;;;25.27;22.70;;;2.90;99.90;;;;;;5067083;28;20481;-69
2023/01/28 03:47:11;;;;;;;23.73;21.33;;;2.80;99.90;;;;;;5064941;28;20519;-69
2023/01/28 03:49:41;;;;;;;23.53;21.20;;;2.70;99.90;;;;;;5072908;28;20493;-69
2023/01/28 03:52:08;;;;;;;20.70;18.80;;;2.70;99.90;;;;;;5066729;28;20882;-69
2023/01/28 03:54:35;;;;;;;23.90;21.77;;;2.70;99.90;;;;;;5070370;28;20494;-68
2023/01/28 03:57:02;;;;;;;22.37;20.17;;;2.60;99.90;;;;;;5073725;28;20863;-69
2023/01/28 03:59:29;;;;;;;21.80;19.80;;;2.70;99.90;;;;;;5067441;28;20649;-68
2023/01/28 04:01:55;;;;;;;22.70;20.67;;;2.70;99.90;;;;;;5068488;28;21008;-69
2023/01/28 04:04:23;;;;;;;22.93;20.93;;;2.70;99.90;;;;;;5070393;28;20580;-68
2023/01/28 04:06:53;;;;;;;22.97;20.77;;;2.80;99.90;;;;;;5069717;28;20827;-68
2023/01/28 04:09:21;;;;;;;23.33;21.23;;;2.70;99.90;;;;;;5067059;28;21006;-69
2023/01/28 04:11:49;;;;;;;22.73;20.60;;;2.70;99.90;;;;;;5071543;28;20484;-69
2023/01/28 04:14:16;;;;;;;25.03;22.73;;;2.70;99.90;;;;;;5068903;28;20465;-69
2023/01/28 04:16:43;;;;;;;25.13;22.83;;;2.70;99.90;;;;;;5074875;28;20840;-68
2023/01/28 04:19:11;;;;;;;24.40;22.07;;;2.70;99.90;;;;;;5067711;28;20474;-69
2023/01/28 04:21:38;;;;;;;23.83;21.63;;;2.70;99.90;;;;;;5071012;28;20467;-69
2023/01/28 04:24:07;;;;;;;24.33;22.13;;;2.60;99.90;;;;;;5068466;28;20471;-68
2023/01/28 04:26:34;;;;;;;24.67;22.57;;;2.70;99.90;;;;;;5068726;28;20505;-69
2023/01/28 04:29:02;;;;;;;26.23;23.83;;;2.60;99.90;;;;;;5068491;28;20607;-69
2023/01/28 04:31:29;;;;;;;26.17;23.57;;;2.70;99.90;;;;;;5071291;28;20450;-69
2023/01/28 04:33:56;;;;;;;26.30;23.97;;;2.60;99.90;;;;;;5075199;28;20558;-69
2023/01/28 04:36:23;;;;;;;26.40;23.93;;;2.60;99.90;;;;;;5064857;28;20470;-69
2023/01/28 04:38:50;;;;;;;25.53;23.13;;;2.60;99.90;;;;;;5066069;28;20463;-69
2023/01/28 04:41:18;;;;;;;26.60;24.00;;;2.60;99.90;;;;;;5061209;28;20616;-68
2023/01/28 04:43:48;;;;;;;27.37;24.60;;;2.60;99.90;;;;;;5064806;28;20467;-69
2023/01/28 04:46:15;;;;;;;27.20;24.50;;;2.50;99.90;;;;;;5060354;28;20493;-69
2023/01/28 04:48:41;;;;;;;43.70;24.13;;;2.60;99.90;;;;;;5074974;28;20835;-68
2023/01/28 04:51:08;;;;;;;27.40;24.73;;;2.60;99.90;;;;;;5068667;28;20492;-69
2023/01/28 04:53:35;;;;;;;29.70;26.80;;;2.60;99.90;;;;;;5067440;28;20486;-69
2023/01/28 04:56:03;;;;;;;29.13;26.10;;;2.60;99.90;;;;;;5072014;28;20462;-69
2023/01/28 04:58:31;;;;;;;27.93;24.87;;;2.60;99.90;;;;;;5065187;28;20923;-68
2023/01/28 05:00:59;;;;;;;28.27;25.37;;;2.60;99.90;;;;;;5065187;28;20451;-69
2023/01/28 05:03:26;;;;;;;31.23;25.33;;;2.70;99.90;;;;;;5073068;28;20457;-69
2023/01/28 05:05:54;;;;;;;27.63;24.63;;;2.60;99.90;;;;;;5072824;28;20987;-69
2023/01/28 05:08:20;;;;;;;26.90;24.30;;;2.50;99.90;;;;;;5065111;28;20468;-68
2023/01/28 05:10:47;;;;;;;28.77;24.23;;;2.50;99.90;;;;;;5063035;28;20831;-69
2023/01/28 05:13:14;;;;;;;26.20;23.50;;;2.50;99.90;;;;;;5072552;28;20466;-68
2023/01/28 05:15:42;;;;;;;27.23;24.47;;;2.60;99.90;;;;;;5071958;28;20455;-69
2023/01/28 05:18:09;;;;;;;28.43;25.57;;;2.50;99.90;;;;;;5066386;28;20827;-69
2023/01/28 05:20:36;;;;;;;30.10;25.97;;;2.40;99.90;;;;;;5063788;28;20450;-71
2023/01/28 05:23:03;;;;;;;28.27;24.33;;;2.30;99.90;;;;;;5064202;28;20846;-69
2023/01/28 05:25:29;;;;;;;27.70;23.90;;;2.50;99.90;;;;;;5070744;28;20478;-69
2023/01/28 05:27:56;;;;;;;25.43;23.03;;;2.30;99.90;;;;;;5067455;28;20561;-69
2023/01/28 05:30:23;;;;;;;28.10;25.10;;;2.30;99.90;;;;;;5067067;28;20490;-69
2023/01/28 05:32:55;;;;;;;28.17;25.30;;;2.20;99.90;;;;;;5067825;28;20463;-69
2023/01/28 05:35:22;;;;;;;28.20;25.20;;;2.30;99.90;;;;;;5061867;28;20469;-69
2023/01/28 05:37:49;;;;;;;27.90;25.03;;;2.30;99.90;;;;;;5062132;28;20474;-69
2023/01/28 05:40:16;;;;;;;26.63;23.73;;;2.20;99.90;;;;;;5068758;28;20490;-69
2023/01/28 05:42:43;;;;;;;29.17;25.57;;;2.30;99.90;;;;;;5068323;28;20477;-69
2023/01/28 05:45:11;;;;;;;29.83;26.70;;;2.30;99.90;;;;;;5070156;28;20467;-69
2023/01/28 05:47:38;;;;;;;26.63;23.33;;;2.30;99.90;;;;;;5061843;28;20549;-69
2023/01/28 05:50:08;;;;;;;35.23;25.50;;;2.50;99.90;;;;;;5067354;28;20762;-69
2023/01/28 05:52:34;;;;;;;27.90;24.80;;;2.50;99.90;;;;;;5076650;28;20480;-69
2023/01/28 05:55:02;;;;;;;29.30;26.30;;;2.60;99.90;;;;;;5072270;28;20505;-69
2023/01/28 05:57:28;;;;;;;28.07;25.40;;;2.60;99.90;;;;;;5070908;28;20556;-68
2023/01/28 05:59:55;;;;;;;29.57;26.67;;;2.40;99.90;;;;;;5072654;28;20466;-69
2023/01/28 06:02:22;;;;;;;32.57;25.80;;;2.40;99.90;;;;;;5072939;28;20550;-69
2023/01/28 06:04:49;;;;;;;28.07;25.23;;;2.30;99.90;;;;;;5071402;28;20461;-69
2023/01/28 06:07:19;;;;;;;30.40;27.10;;;2.10;99.90;;;;;;5072164;28;20576;-69
2023/01/28 06:09:47;;;;;;;27.90;24.90;;;2.20;99.90;;;;;;5066640;28;20459;-69
2023/01/28 06:12:14;;;;;;;27.50;24.90;;;2.30;99.90;;;;;;5065787;28;20474;-68
2023/01/28 06:14:42;;;;;;;30.10;27.17;;;2.40;99.90;;;;;;5073227;28;20470;-69
2023/01/28 06:17:09;;;;;;;31.57;28.17;;;2.40;99.90;;;;;;5073067;28;20463;-69
2023/01/28 06:19:36;;;;;;;35.13;28.47;;;2.30;99.90;;;;;;5067225;28;20834;-69
2023/01/28 06:22:03;;;;;;;32.67;27.23;;;2.30;99.90;;;;;;5072744;28;20868;-69
2023/01/28 06:24:32;;;;;;;47.30;29.93;;;2.20;99.90;;;;;;5076625;28;20463;-69
2023/01/28 06:26:59;;;;;;;33.23;29.60;;;2.20;99.90;;;;;;5076417;28;20525;-69
2023/01/28 06:29:25;;;;;;;29.73;26.53;;;2.20;99.90;;;;;;5066331;28;20470;-68
2023/01/28 06:31:52;;;;;;;34.70;28.27;;;2.20;99.90;;;;;;5067787;28;20460;-69
2023/01/28 06:34:19;;;;;;;36.17;28.23;;;2.30;99.90;;;;;;5072487;28;20493;-69
2023/01/28 06:36:46;;;;;;;30.03;26.93;;;2.30;99.90;;;;;;5074054;28;20485;-68
2023/01/28 06:39:13;;;;;;;34.37;29.23;;;2.30;99.90;;;;;;5071901;28;20837;-69
2023/01/28 06:41:41;;;;;;;29.10;26.17;;;2.20;99.90;;;;;;5063559;28;20869;-68
2023/01/28 06:44:08;;;;;;;29.80;26.50;;;2.20;99.90;;;;;;5071010;28;20593;-69
2023/01/28 06:46:35;;;;;;;30.20;27.10;;;2.20;99.90;;;;;;5066542;28;20487;-71
2023/01/28 06:49:03;;;;;;;29.70;26.50;;;2.30;99.90;;;;;;5069325;28;20458;-69
2023/01/28 06:51:29;;;;;;;30.60;25.80;;;2.20;99.90;;;;;;5065578;28;20866;-68
2023/01/28 06:53:56;;;;;;;32.57;29.13;;;2.20;99.90;;;;;;5068230;28;20501;-69
2023/01/28 06:56:23;;;;;;;33.10;28.47;;;2.20;99.90;;;;;;5071872;28;20462;-68
2023/01/28 06:58:52;;;;;;;33.00;29.40;;;2.10;99.90;;;;;;5074977;28;20545;-70
2023/01/28 07:01:19;;;;;;;33.33;29.73;;;2.10;99.90;;;;;;5074072;28;20466;-68
2023/01/28 07:03:47;;;;;;;35.23;29.73;;;2.00;99.90;;;;;;5071771;28;20462;-69
2023/01/28 07:06:13;;;;;;;33.67;29.33;;;2.00;99.90;;;;;;5072268;28;20739;-68
2023/01/28 07:08:41;;;;;;;32.80;29.30;;;2.00;99.90;;;;;;5070581;28;20879;-68
2023/01/28 07:11:08;;;;;;;35.07;30.90;;;2.00;99.90;;;;;;5062968;28;21009;-68
2023/01/28 07:13:35;;;;;;;35.83;32.10;;;2.00;99.90;;;;;;5071111;28;20483;-71
2023/01/28 07:16:04;;;;;;;40.43;31.00;;;1.90;99.90;;;;;;5069704;28;20969;-69
2023/01/28 07:18:31;;;;;;;38.57;31.97;;;1.90;99.90;;;;;;5076796;28;20461;-69
2023/01/28 07:20:58;;;;;;;33.30;29.73;;;2.00;99.90;;;;;;5067296;28;20916;-69
2023/01/28 07:23:24;;;;;;;44.40;33.00;;;2.20;99.90;;;;;;5072993;28;20972;-69
2023/01/28 07:25:51;;;;;;;38.10;32.20;;;2.30;99.90;;;;;;5071590;28;20509;-70
2023/01/28 07:28:20;;;;;;;43.43;32.30;;;2.30;99.90;;;;;;5068415;28;21028;-69
2023/01/28 07:30:48;;;;;;;38.27;33.63;;;2.20;99.90;;;;;;5066621;28;20562;-69
2023/01/28 07:33:17;;;;;;;41.33;32.40;;;2.10;99.90;;;;;;5072058;28;20876;-69
2023/01/28 07:35:44;;;;;;;34.97;31.37;;;2.00;99.90;;;;;;5066549;28;20949;-69
2023/01/28 07:38:11;;;;;;;35.00;30.80;;;2.00;99.90;;;;;;5067293;28;20466;-69
2023/01/28 07:40:38;;;;;;;35.93;32.13;;;2.00;99.90;;;;;;5072149;28;20494;-69
2023/01/28 07:43:05;;;;;;;33.93;30.40;;;2.20;99.90;;;;;;5070771;28;20454;-69
2023/01/28 07:45:32;;;;;;;34.27;30.60;;;2.30;99.90;;;;;;5070437;28;20546;-69
2023/01/28 07:48:01;;;;;;;33.20;29.90;;;2.30;99.90;;;;;;5069730;28;20838;-69
2023/01/28 07:50:31;;;;;;;34.40;29.97;;;2.20;99.90;;;;;;5069890;28;20481;-69
2023/01/28 07:52:59;;;;;;;32.57;29.10;;;2.20;99.90;;;;;;5070601;28;20466;-69
2023/01/28 07:55:26;;;;;;;45.37;30.47;;;2.10;99.90;;;;;;5069334;28;20774;-69
2023/01/28 07:57:54;;;;;;;33.13;29.53;;;2.10;99.90;;;;;;5076012;28;20463;-69
2023/01/28 08:00:23;;;;;;;34.80;30.97;;;2.00;99.90;;;;;;5074388;28;20756;-69
2023/01/28 08:02:50;;;;;;;45.60;34.50;;;2.10;99.90;;;;;;5071080;28;20466;-69
2023/01/28 08:05:19;;;;;;;38.23;32.73;;;2.10;99.90;;;;;;5069252;28;20461;-69
2023/01/28 08:07:48;;;;;;;35.77;31.50;;;2.10;99.90;;;;;;5071011;28;20692;-69
2023/01/28 08:10:16;;;;;;;35.83;31.73;;;2.10;99.90;;;;;;5067671;28;21007;-69
2023/01/28 08:12:51;;;;;;;39.60;32.60;;;2.10;99.90;;;;;;5070246;28;20462;-70
2023/01/28 08:15:18;;;;;;;39.20;33.67;;;2.20;99.90;;;;;;5068227;28;20454;-69
2023/01/28 08:17:46;;;;;;;36.83;31.97;;;2.20;99.90;;;;;;5072756;28;20520;-69
2023/01/28 08:20:13;;;;;;;42.07;30.90;;;2.20;99.90;;;;;;5063239;28;20853;-69
2023/01/28 08:22:40;;;;;;;36.60;31.40;;;2.20;99.90;;;;;;5063235;28;20548;-69
2023/01/28 08:25:08;;;;;;;37.20;32.23;;;2.30;99.90;;;;;;5065042;28;20553;-69
2023/01/28 08:27:35;;;;;;;43.70;33.80;;;2.30;99.90;;;;;;5065968;28;20486;-69
2023/01/28 08:30:02;;;;;;;42.87;34.07;;;2.30;99.90;;;;;;5065283;28;20458;-69
2023/01/28 08:32:29;;;;;;;38.20;32.37;;;2.40;99.90;;;;;;5058342;28;20490;-69
2023/01/28 08:34:57;;;;;;;40.57;32.40;;;2.20;99.90;;;;;;5059319;28;20470;-69
2023/01/28 08:37:24;;;;;;;38.60;32.97;;;2.20;99.90;;;;;;5060509;28;20470;-70
2023/01/28 08:39:51;;;;;;;45.80;34.40;;;2.40;99.90;;;;;;5067573;28;20797;-69
2023/01/28 08:42:19;;;;;;;48.97;33.80;;;2.50;99.90;;;;;;5060172;28;20952;-69
2023/01/28 08:44:47;;;;;;;35.77;32.00;;;2.50;99.90;;;;;;5068008;28;20455;-69
2023/01/28 08:47:14;;;;;;;41.33;32.33;;;2.50;99.90;;;;;;5062805;28;20739;-69
2023/01/28 08:49:40;;;;;;;41.03;35.63;;;2.40;99.90;;;;;;5063586;28;20550;-71
2023/01/28 08:52:07;;;;;;;45.20;34.23;;;2.50;99.90;;;;;;5071871;28;20461;-70
2023/01/28 08:54:35;;;;;;;39.13;32.77;;;2.80;99.90;;;;;;5064355;28;20514;-69
2023/01/28 08:57:03;;;;;;;37.10;33.10;;;2.90;99.90;;;;;;5055892;28;20459;-69
2023/01/28 08:59:31;;;;;;;40.27;32.77;;;3.00;99.90;;;;;;5059734;28;20739;-69
2023/01/28 09:01:58;;;;;;;44.40;34.30;;;3.00;99.90;;;;;;5057514;28;20566;-69
2023/01/28 09:04:24;;;;;;;38.10;32.03;;;3.00;99.90;;;;;;5060007;28;20990;-69
2023/01/28 09:06:51;;;;;;;41.40;32.80;;;3.00;99.90;;;;;;5072437;28;20475;-69
2023/01/28 09:09:18;;;;;;;43.87;33.67;;;2.90;99.90;;;;;;5058473;28;20992;-69
2023/01/28 09:11:45;;;;;;;36.83;32.60;;;3.00;99.90;;;;;;5060104;28;20473;-69
2023/01/28 09:14:11;;;;;;;41.30;32.90;;;3.10;99.90;;;;;;5060755;28;20976;-69
2023/01/28 09:16:40;;;;;;;36.87;31.63;;;3.20;99.90;;;;;;5066946;28;20467;-70
2023/01/28 09:19:06;;;;;;;36.40;32.47;;;3.30;99.90;;;;;;5070080;28;20460;-69
2023/01/28 09:21:34;;;;;;;44.17;34.33;;;3.10;99.90;;;;;;5062531;28;20460;-69
2023/01/28 09:24:00;;;;;;;36.03;32.13;;;3.00;99.90;;;;;;5064159;28;20462;-70
2023/01/28 09:26:27;;;;;;;38.53;31.57;;;3.00;99.90;;;;;;5060235;28;20497;-69
2023/01/28 09:28:54;;;;;;;38.80;30.60;;;3.00;99.90;;;;;;5065195;28;20831;-69
2023/01/28 09:31:22;;;;;;;38.37;30.00;;;2.90;99.90;;;;;;5061039;28;20512;-69
2023/01/28 09:33:55;;;;;;;36.30;27.80;;;2.70;99.90;;;;;;5062432;28;20787;-69
2023/01/28 09:36:23;;;;;;;34.20;28.77;;;2.50;99.90;;;;;;5066826;28;20485;-69
2023/01/28 09:38:49;;;;;;;30.33;26.60;;;2.30;99.90;;;;;;5065083;28;20515;-69
2023/01/28 09:41:26;;;;;;;38.77;30.60;;;2.30;99.90;;;;;;5065206;28;20858;-69
2023/01/28 09:44:31;;;;;;;33.57;29.00;;;2.30;99.90;;;;;;5065351;28;20462;-69
2023/01/28 09:47:02;;;;;;;37.63;30.43;;;2.30;99.90;;;;;;5052197;28;20486;-69
2023/01/28 09:49:37;;;;;;;39.60;30.63;;;2.20;99.90;;;;;;5069357;28;20469;-69
2023/01/28 09:52:04;;;;;;;32.97;26.70;;;2.30;99.90;;;;;;5072488;28;20993;-70
2023/01/28 09:54:41;;;;;;;32.77;28.93;;;2.40;99.90;;;;;;5077307;28;20485;-69
2023/01/28 09:57:14;;;;;;;35.27;30.40;;;2.40;99.90;;;;;;5069344;28;20465;-70
2023/01/28 09:59:41;;;;;;;39.77;30.50;;;2.40;99.90;;;;;;5067385;28;20980;-69
2023/01/28 10:02:30;;;;;;;31.17;27.30;;;2.60;99.90;;;;;;5058492;28;20500;-69
2023/01/28 10:05:10;;;;;;;34.97;31.30;;;2.60;99.90;;;;;;5063643;28;20477;-69
2023/01/28 10:07:45;;;;;;;34.30;28.17;;;2.50;99.90;;;;;;5064310;28;20504;-69
2023/01/28 10:10:14;;;;;;;36.73;31.00;;;2.50;99.90;;;;;;5058706;28;20553;-69
2023/01/28 10:12:58;;;;;;;33.13;28.50;;;2.50;99.90;;;;;;5066400;28;20459;-69
2023/01/28 10:15:52;;;;;;;36.07;29.23;;;2.50;99.90;;;;;;5043213;28;20452;-69
2023/01/28 10:18:29;;;;;;;37.63;29.90;;;2.70;99.90;;;;;;5056642;28;20547;-69
2023/01/28 10:21:05;;;;;;;37.90;31.30;;;2.80;99.90;;;;;;5063739;28;20462;-69
2023/01/28 10:23:41;;;;;;;35.83;31.10;;;2.90;99.90;;;;;;5064269;28;20458;-69
2023/01/28 10:26:20;;;;;;;43.00;31.80;;;3.10;99.90;;;;;;5070115;28;21616;-69
2023/01/28 10:28:56;;;;;;;33.27;29.50;;;3.20;99.90;;;;;;5066292;28;20479;-69
2023/01/28 10:31:27;;;;;;;34.37;30.60;;;3.00;99.90;;;;;;5068267;28;20544;-69
2023/01/28 10:33:54;;;;;;;35.43;27.20;;;3.00;99.90;;;;;;5059505;28;20467;-69
2023/01/28 10:36:23;;;;;;;35.53;27.50;;;2.80;99.90;;;;;;5052370;28;20873;-69
2023/01/28 10:38:50;;;;;;;33.33;29.73;;;2.70;99.90;;;;;;5066118;28;20810;-69
2023/01/28 10:41:20;;;;;;;32.00;27.90;;;2.70;99.90;;;;;;5065663;28;20478;-70
2023/01/28 10:43:49;;;;;;;34.80;31.10;;;2.80;99.90;;;;;;5069652;28;20976;-69
2023/01/28 10:46:18;;;;;;;36.17;30.63;;;2.90;99.90;;;;;;5060681;28;20875;-69
2023/01/28 10:48:53;;;;;;;36.87;30.37;;;2.90;99.90;;;;;;5063592;28;21016;-69
2023/01/28 10:51:32;;;;;;;35.40;30.50;;;3.10;99.90;;;;;;5061114;28;20984;-69
2023/01/28 10:53:59;;;;;;;36.00;31.63;;;3.00;99.90;;;;;;5063785;28;20485;-69
2023/01/28 10:56:28;;;;;;;37.80;31.17;;;3.20;99.90;;;;;;5068215;28;20519;-69
2023/01/28 10:59:00;;;;;;;33.07;29.67;;;3.30;99.90;;;;;;5068202;28;20463;-69
2023/01/28 11:01:41;;;;;;;37.87;32.03;;;3.30;99.90;;;;;;5063365;28;20474;-70
2023/01/28 11:04:18;;;;;;;41.83;30.37;;;3.40;99.90;;;;;;5068932;28;21324;-69
2023/01/28 11:06:54;;;;;;;39.80;33.47;;;3.50;99.90;;;;;;5069353;28;20571;-69
2023/01/28 11:09:23;;;;;;;37.17;31.13;;;3.50;99.90;;;;;;5062560;28;20861;-69
2023/01/28 11:11:50;;;;;;;37.67;31.27;;;3.60;99.90;;;;;;5059822;28;20459;-69
2023/01/28 11:14:22;;;;;;;38.60;32.23;;;3.70;99.90;;;;;;5068847;28;20467;-69
2023/01/28 11:16:49;;;;;;;34.63;31.00;;;3.70;99.90;;;;;;5069481;28;20690;-69
2023/01/28 11:19:19;;;;;;;38.40;31.53;;;3.40;99.90;;;;;;5066994;28;20965;-69
2023/01/28 11:21:52;;;;;;;37.03;31.37;;;3.50;99.90;;;;;;5064448;28;21014;-69
2023/01/28 11:24:23;;;;;;;33.20;28.30;;;3.50;99.90;;;;;;5059720;28;21005;-69
2023/01/28 11:27:07;;;;;;;33.97;29.70;;;3.40;99.90;;;;;;5065254;28;20490;-69
2023/01/28 11:29:38;;;;;;;36.50;30.33;;;3.10;99.90;;;;;;5060226;28;20475;-69
2023/01/28 11:32:06;;;;;;;37.27;31.47;;;3.00;99.90;;;;;;5063470;28;20878;-69
2023/01/28 11:34:34;;;;;;;38.90;31.33;;;3.10;99.90;;;;;;5072105;28;20460;-69
2023/01/28 11:37:04;;;;;;;38.23;30.43;;;3.00;99.90;;;;;;5068177;28;20965;-69
2023/01/28 11:39:33;;;;;;;40.27;29.10;;;2.90;99.90;;;;;;5068479;28;20836;-69
2023/01/28 11:42:15;;;;;;;38.10;31.50;;;2.70;99.90;;;;;;5067597;28;20540;-69
2023/01/28 11:44:43;;;;;;;35.90;30.90;;;2.70;99.90;;;;;;5062134;28;20478;-69
2023/01/28 11:47:19;;;;;;;34.97;30.90;;;2.70;99.90;;;;;;5061550;28;20715;-69
2023/01/28 11:50:03;;;;;;;39.97;30.53;;;2.80;99.90;;;;;;5063330;28;20466;-69
2023/01/28 11:52:43;;;;;;;35.93;28.67;;;2.90;99.90;;;;;;5062030;28;21145;-69
2023/01/28 11:55:25;;;;;;;34.93;29.37;;;3.00;99.90;;;;;;5068834;28;20493;-69
2023/01/28 11:57:59;;;;;;;37.27;29.80;;;3.20;99.90;;;;;;5067325;28;20467;-69
2023/01/28 12:00:37;;;;;;;34.70;29.00;;;3.30;99.90;;;;;;5062961;28;20540;-70
2023/01/28 12:03:23;;;;;;;36.70;28.67;;;3.30;99.90;;;;;;5062335;28;20467;-70
2023/01/28 12:05:53;;;;;;;33.13;29.53;;;3.60;99.90;;;;;;5068831;28;20456;-70
2023/01/28 12:08:24;;;;;;;32.90;28.30;;;3.90;99.90;;;;;;5068850;28;20529;-70
2023/01/28 12:12:10;;;;;;;33.77;30.37;;;3.90;99.90;;;;;;5056040;28;20604;-70
2023/01/28 12:14:23;;;;;;;35.63;30.53;;;3.50;99.90;;;;;;5055851;28;20480;-70
2023/01/28 12:17:00;;;;;;;33.30;29.50;;;3.20;99.90;;;;;;5055703;28;20825;-69
2023/01/28 12:19:46;;;;;;;37.23;30.80;;;3.20;99.90;;;;;;5071080;28;20459;-69
2023/01/28 12:22:34;;;;;;;36.27;30.90;;;3.00;99.90;;;;;;5070070;28;20541;-69
2023/01/28 12:25:21;;;;;;;36.60;31.17;;;2.80;99.90;;;;;;5070513;28;20911;-69
2023/01/28 12:27:55;;;;;;;35.60;31.90;;;3.00;99.90;;;;;;5064960;28;20489;-69
2023/01/28 12:30:34;;;;;;;37.50;30.37;;;3.10;99.90;;;;;;5065380;28;21258;-69
2023/01/28 12:33:21;;;;;;;35.27;29.47;;;3.20;99.90;;;;;;5064398;28;20524;-69
2023/01/28 12:36:05;;;;;;;32.00;28.13;;;3.40;99.90;;;;;;5067663;28;20779;-69
2023/01/28 12:38:43;;;;;;;29.67;26.57;;;3.40;99.90;;;;;;5063634;28;20991;-69
2023/01/28 12:41:13;;;;;;;34.80;30.00;;;3.40;99.90;;;;;;5062338;28;20490;-69
2023/01/28 12:43:48;;;;;;;30.50;27.23;;;3.40;99.90;;;;;;5065604;28;20454;-69
2023/01/28 12:46:25;;;;;;;33.87;29.97;;;3.10;99.90;;;;;;5065856;28;20461;-70
2023/01/28 12:48:57;;;;;;;35.20;29.23;;;3.20;99.90;;;;;;5063950;28;20874;-69
2023/01/28 12:51:28;;;;;;;33.83;28.53;;;3.00;99.90;;;;;;5064301;28;20499;-70
2023/01/28 12:54:00;;;;;;;50.23;33.97;;;3.20;99.90;;;;;;5063280;28;20490;-70
2023/01/28 12:56:32;;;;;;;36.47;29.63;;;3.50;99.90;;;;;;5066388;28;20474;-70
2023/01/28 12:59:04;;;;;;;32.93;28.67;;;3.60;99.90;;;;;;5063395;28;20922;-70
2023/01/28 13:01:40;;;;;;;35.53;29.80;;;3.70;99.90;;;;;;5069517;28;21811;-70
2023/01/28 13:04:13;;;;;;;33.00;29.50;;;4.10;99.90;;;;;;5063252;28;20542;-70
2023/01/28 13:06:44;;;;;;;34.93;30.63;;;4.20;99.90;;;;;;5071093;28;20471;-70
2023/01/28 13:09:16;;;;;;;45.73;31.33;;;4.40;99.90;;;;;;5074597;28;20489;-69
2023/01/28 13:11:45;;;;;;;57.60;39.53;;;4.50;99.90;;;;;;5060635;28;20462;-70
2023/01/28 13:14:15;;;;;;;44.67;34.47;;;4.70;99.90;;;;;;5065527;28;20473;-70
2023/01/28 13:16:42;;;;;;;39.40;32.70;;;5.00;99.90;;;;;;5062024;28;20883;-70
2023/01/28 13:19:22;;;;;;;37.33;32.40;;;5.20;99.90;;;;;;5072993;28;20464;-70